Portada
METAR-TAF:

METAR-TAF

Aeroports :

Kerteh, Malàisia

latitud: 04-32-15N, longitud: 103-25-36E, altitud: 5 m

Observació

L'informe es va fer fa 1 hora i 3 minuts, a les 11:00 UTC
Vent 2 kt amb direcció variable
Temperatura 28°C
Humitat 89%
Pressió 1009 hPa
Visibilitat: 0900 m
calitja

METAR: WMKE 181100Z VRB02KT 0900 HZ VV/// 28/26 Q1009

Hora: 20:03 (12:03 UTC)

Pronòstic

L'informe es va fer fa 1 hora i 3 minuts, a les 11:00 UTC
Pronòstic vàlid del 18 a les 12 UTC al 19 a les 12 UTC
Vent 5 kt del Sud/Sud-Est
Visibilitat: 2000 m
Escasses núvols a una alçada de 1400 ft
calitja

TAF: WMKE 181100Z 1812/1912 15005KT 2000 HZ FEW014

Observacions i pronòstics meteorològics de més de 4000 aeroports (METAR i TAF).

Les estacions disponibles són els punts grocs i vermells al mapa.

Posi el ratolí al punt desitjat per veure el nom de l'estació.

Feu clic per veure les observacions i els pronòstics meteorològics.

Per canviar el mapa: feu clic els botons verds amb una creu de color negre per apropar; al botó verd amb un guió per allunyar la imatge; o en les fletxes verdes per a mapes adjacents.


METAR-TAF: